AAL1697 KPHL-KMCO
Flight info
| Callsign | AAL1697 |
|---|---|
| Flight time | 2h 6m |
| Altitude | 38000 |
| Route | OOD TEBEE HAYDO TRPOD Q409 CRPLR Q85 LPERD GTOUT1 |
| Aircraft | A21N/M-SDE2E3FGHIJ1RWXY/LB1 |
Departure
| Time | 2026-05-06 22:35 |
|---|---|
| Airport | Philadelphia International Airport (KPHL) |
Arrival
| Time | 2026-05-07 00:41 |
|---|---|
| Airport | Orlando International Airport (KMCO) |
| Time | Latitude | Longitude | Altitude | Speed | Heading |
|---|---|---|---|---|---|
| 2026-05-06 22:07 | 39.87502 | -75.24440 | 31 ft | 0 kts | 110° |
| 2026-05-06 22:19 | 39.87502 | -75.24441 | 31 ft | 1 kts | 110° |
| 2026-05-06 22:20 | 39.87510 | -75.24467 | 31 ft | 3 kts | 110° |
| 2026-05-06 22:20 | 39.87512 | -75.24494 | 31 ft | 4 kts | 50° |
| 2026-05-06 22:20 | 39.87491 | -75.24509 | 31 ft | 4 kts | 15° |
| 2026-05-06 22:20 | 39.87487 | -75.24510 | 31 ft | 0 kts | 14° |
| 2026-05-06 22:22 | 39.87489 | -75.24510 | 31 ft | 4 kts | 195° |
| 2026-05-06 22:22 | 39.87472 | -75.24532 | 31 ft | 4 kts | 236° |
| 2026-05-06 22:22 | 39.87459 | -75.24551 | 31 ft | 4 kts | 198° |
| 2026-05-06 22:22 | 39.87480 | -75.24543 | 31 ft | 0 kts | 196° |
| 2026-05-06 22:27 | 39.87464 | -75.24549 | 31 ft | 5 kts | 196° |
| 2026-05-06 22:27 | 39.87418 | -75.24567 | 31 ft | 9 kts | 196° |
| 2026-05-06 22:28 | 39.87359 | -75.24571 | 31 ft | 9 kts | 166° |
| 2026-05-06 22:28 | 39.87287 | -75.24545 | 31 ft | 13 kts | 166° |
| 2026-05-06 22:28 | 39.87213 | -75.24475 | 31 ft | 15 kts | 95° |
| 2026-05-06 22:28 | 39.87225 | -75.24337 | 31 ft | 16 kts | 77° |
| 2026-05-06 22:29 | 39.87229 | -75.24314 | 31 ft | 0 kts | 73° |
| 2026-05-06 22:29 | 39.87245 | -75.24231 | 31 ft | 15 kts | 84° |
| 2026-05-06 22:29 | 39.87175 | -75.24120 | 31 ft | 19 kts | 153° |
| 2026-05-06 22:30 | 39.87045 | -75.24063 | 31 ft | 14 kts | 166° |
| 2026-05-06 22:30 | 39.86955 | -75.24034 | 31 ft | 14 kts | 165° |
| 2026-05-06 22:30 | 39.86908 | -75.23939 | 31 ft | 7 kts | 76° |
| 2026-05-06 22:30 | 39.86926 | -75.23866 | 31 ft | 10 kts | 71° |
| 2026-05-06 22:31 | 39.86946 | -75.23774 | 31 ft | 12 kts | 75° |
| 2026-05-06 22:31 | 39.86969 | -75.23662 | 31 ft | 14 kts | 75° |
| 2026-05-06 22:31 | 39.86989 | -75.23537 | 31 ft | 15 kts | 78° |
| 2026-05-06 22:31 | 39.86997 | -75.23486 | 31 ft | 2 kts | 77° |
| 2026-05-06 22:32 | 39.86997 | -75.23458 | 31 ft | 5 kts | 101° |
| 2026-05-06 22:32 | 39.86992 | -75.23440 | 31 ft | 0 kts | 115° |
| 2026-05-06 22:33 | 39.86932 | -75.23408 | 31 ft | 11 kts | 206° |
| 2026-05-06 22:33 | 39.86893 | -75.23463 | 31 ft | 1 kts | 255° |
| 2026-05-06 22:34 | 39.86892 | -75.23468 | 31 ft | 0 kts | 255° |
| 2026-05-06 22:34 | 39.86805 | -75.23900 | 31 ft | 101 kts | 254° |
| 2026-05-06 22:35 | 39.86553 | -75.25167 | 98 ft | 177 kts | 253° |
| 2026-05-06 22:35 | 39.86231 | -75.26846 | 719 ft | 210 kts | 254° |
| 2026-05-06 22:35 | 39.85810 | -75.28875 | 1194 ft | 251 kts | 253° |
| 2026-05-06 22:35 | 39.85347 | -75.31041 | 1797 ft | 238 kts | 253° |
| 2026-05-06 22:36 | 39.84902 | -75.33115 | 2231 ft | 239 kts | 253° |
| 2026-05-06 22:36 | 39.84310 | -75.35100 | 2677 ft | 235 kts | 241° |
| 2026-05-06 22:36 | 39.83325 | -75.36812 | 3516 ft | 242 kts | 224° |
| 2026-05-06 22:36 | 39.81858 | -75.37937 | 4474 ft | 251 kts | 202° |
| 2026-05-06 22:37 | 39.80087 | -75.38195 | 5424 ft | 266 kts | 179° |
| 2026-05-06 22:37 | 39.78270 | -75.37549 | 6388 ft | 277 kts | 166° |
| 2026-05-06 22:37 | 39.76457 | -75.36626 | 7301 ft | 282 kts | 166° |
| 2026-05-06 22:37 | 39.74618 | -75.35689 | 8261 ft | 286 kts | 166° |
| 2026-05-06 22:38 | 39.72759 | -75.34759 | 9262 ft | 288 kts | 167° |
| 2026-05-06 22:38 | 39.70877 | -75.33836 | 10183 ft | 292 kts | 168° |
| 2026-05-06 22:38 | 39.68908 | -75.32890 | 10668 ft | 312 kts | 168° |
| 2026-05-06 22:38 | 39.66808 | -75.31885 | 11195 ft | 328 kts | 168° |
| 2026-05-06 22:39 | 39.64642 | -75.30877 | 11973 ft | 332 kts | 172° |
| 2026-05-06 22:39 | 39.62392 | -75.30504 | 12791 ft | 321 kts | 191° |
| 2026-05-06 22:39 | 39.60179 | -75.30837 | 13637 ft | 322 kts | 197° |
| 2026-05-06 22:39 | 39.57949 | -75.31280 | 14371 ft | 327 kts | 197° |
| 2026-05-06 22:40 | 39.55686 | -75.31725 | 15118 ft | 332 kts | 197° |
| 2026-05-06 22:40 | 39.53386 | -75.32157 | 15832 ft | 337 kts | 196° |
| 2026-05-06 22:40 | 39.51047 | -75.32586 | 16556 ft | 342 kts | 196° |
| 2026-05-06 22:40 | 39.48671 | -75.33019 | 17292 ft | 347 kts | 196° |
| 2026-05-06 22:41 | 39.43763 | -75.33921 | 18417 ft | 364 kts | 196° |
| 2026-05-06 22:41 | 39.41269 | -75.34361 | 19267 ft | 360 kts | 197° |
| 2026-05-06 22:41 | 39.38779 | -75.34805 | 19990 ft | 361 kts | 197° |
| 2026-05-06 22:42 | 39.36281 | -75.35255 | 20532 ft | 364 kts | 198° |
| 2026-05-06 22:42 | 39.33771 | -75.35708 | 20768 ft | 364 kts | 198° |
| 2026-05-06 22:42 | 39.31261 | -75.36159 | 20807 ft | 366 kts | 198° |
| 2026-05-06 22:42 | 39.28735 | -75.36614 | 20834 ft | 367 kts | 198° |
| 2026-05-06 22:43 | 39.26208 | -75.37068 | 20841 ft | 367 kts | 198° |
| 2026-05-06 22:43 | 39.23681 | -75.37520 | 20904 ft | 367 kts | 198° |
| 2026-05-06 22:43 | 39.21149 | -75.37975 | 21360 ft | 370 kts | 198° |
| 2026-05-06 22:43 | 39.18581 | -75.38437 | 21990 ft | 374 kts | 198° |
| 2026-05-06 22:44 | 39.15995 | -75.38900 | 22650 ft | 377 kts | 199° |
| 2026-05-06 22:44 | 39.13389 | -75.39366 | 23303 ft | 380 kts | 199° |
| 2026-05-06 22:44 | 39.10760 | -75.39836 | 23846 ft | 383 kts | 199° |
| 2026-05-06 22:44 | 39.08111 | -75.40309 | 24336 ft | 385 kts | 199° |
| 2026-05-06 22:45 | 39.05448 | -75.40783 | 24841 ft | 388 kts | 199° |
| 2026-05-06 22:45 | 39.02761 | -75.41261 | 25343 ft | 391 kts | 199° |
| 2026-05-06 22:45 | 39.00063 | -75.41741 | 25833 ft | 393 kts | 199° |
| 2026-05-06 22:45 | 38.97344 | -75.42224 | 26330 ft | 396 kts | 199° |
| 2026-05-06 22:46 | 38.94605 | -75.42711 | 26810 ft | 398 kts | 200° |
| 2026-05-06 22:46 | 38.91858 | -75.43198 | 27299 ft | 400 kts | 200° |
| 2026-05-06 22:46 | 38.89091 | -75.43685 | 27779 ft | 402 kts | 200° |
| 2026-05-06 22:46 | 38.86318 | -75.44173 | 28184 ft | 404 kts | 200° |
| 2026-05-06 22:47 | 38.83526 | -75.44666 | 28628 ft | 406 kts | 200° |
| 2026-05-06 22:47 | 38.80723 | -75.45160 | 29054 ft | 408 kts | 200° |
| 2026-05-06 22:47 | 38.77899 | -75.45659 | 29476 ft | 410 kts | 200° |
| 2026-05-06 22:47 | 38.75063 | -75.46159 | 29890 ft | 413 kts | 200° |
| 2026-05-06 22:48 | 38.72210 | -75.46665 | 30236 ft | 415 kts | 200° |
| 2026-05-06 22:48 | 38.69344 | -75.47175 | 30571 ft | 417 kts | 200° |
| 2026-05-06 22:48 | 38.66468 | -75.47683 | 30876 ft | 419 kts | 200° |
| 2026-05-06 22:48 | 38.63568 | -75.48194 | 31188 ft | 421 kts | 200° |
| 2026-05-06 22:49 | 38.60661 | -75.48705 | 31501 ft | 423 kts | 200° |
| 2026-05-06 22:49 | 38.57733 | -75.49222 | 31816 ft | 426 kts | 200° |
| 2026-05-06 22:49 | 38.54791 | -75.49738 | 32129 ft | 428 kts | 200° |
| 2026-05-06 22:49 | 38.51836 | -75.50255 | 32429 ft | 430 kts | 200° |
| 2026-05-06 22:50 | 38.48867 | -75.50775 | 32761 ft | 430 kts | 200° |
| 2026-05-06 22:50 | 38.45902 | -75.51293 | 33142 ft | 430 kts | 200° |
| 2026-05-06 22:50 | 38.42944 | -75.51810 | 33430 ft | 430 kts | 200° |
| 2026-05-06 22:50 | 38.39977 | -75.52329 | 33720 ft | 431 kts | 200° |
| 2026-05-06 22:51 | 38.37015 | -75.52864 | 34037 ft | 427 kts | 201° |
| 2026-05-06 22:51 | 38.34186 | -75.53774 | 34303 ft | 412 kts | 211° |
| 2026-05-06 22:51 | 38.31651 | -75.55287 | 34553 ft | 395 kts | 222° |
| 2026-05-06 22:51 | 38.29381 | -75.57198 | 34824 ft | 390 kts | 225° |
| 2026-05-06 22:52 | 38.27168 | -75.59178 | 35101 ft | 388 kts | 226° |
| 2026-05-06 22:52 | 38.24954 | -75.61150 | 35374 ft | 388 kts | 226° |
| 2026-05-06 22:52 | 38.22734 | -75.63105 | 35605 ft | 388 kts | 225° |
| 2026-05-06 22:52 | 38.20534 | -75.65034 | 35713 ft | 392 kts | 225° |
| 2026-05-06 22:53 | 38.18248 | -75.67028 | 35827 ft | 395 kts | 225° |
| 2026-05-06 22:53 | 38.15979 | -75.69004 | 36029 ft | 395 kts | 225° |
| 2026-05-06 22:53 | 38.13710 | -75.70973 | 36267 ft | 395 kts | 225° |
| 2026-05-06 22:53 | 38.11448 | -75.72936 | 36510 ft | 394 kts | 225° |
| 2026-05-06 22:54 | 38.09185 | -75.74892 | 36760 ft | 393 kts | 226° |
| 2026-05-06 22:54 | 38.06934 | -75.76843 | 36987 ft | 392 kts | 226° |
| 2026-05-06 22:54 | 38.04681 | -75.78791 | 37215 ft | 391 kts | 226° |
| 2026-05-06 22:54 | 38.02443 | -75.80724 | 37488 ft | 388 kts | 227° |
| 2026-05-06 22:55 | 38.00214 | -75.82655 | 37645 ft | 389 kts | 227° |
| 2026-05-06 22:55 | 37.97976 | -75.84594 | 37782 ft | 390 kts | 227° |
| 2026-05-06 22:55 | 37.95733 | -75.86531 | 37915 ft | 391 kts | 227° |
| 2026-05-06 22:56 | 37.91250 | -75.90391 | 37912 ft | 389 kts | 227° |
| 2026-05-06 22:56 | 37.86772 | -75.94246 | 37902 ft | 389 kts | 227° |
| 2026-05-06 22:57 | 37.83052 | -75.97446 | 37902 ft | 389 kts | 227° |
| 2026-05-06 22:57 | 37.78556 | -76.01305 | 37872 ft | 393 kts | 227° |
| 2026-05-06 22:58 | 37.73241 | -76.05862 | 37900 ft | 399 kts | 227° |
| 2026-05-06 22:58 | 37.69391 | -76.09150 | 37900 ft | 399 kts | 227° |
| 2026-05-06 22:59 | 37.64801 | -76.13070 | 37895 ft | 399 kts | 227° |
| 2026-05-06 22:59 | 37.60192 | -76.16955 | 37898 ft | 399 kts | 225° |
| 2026-05-06 23:00 | 37.55441 | -76.20586 | 37895 ft | 400 kts | 224° |
| 2026-05-06 23:00 | 37.50676 | -76.24203 | 37892 ft | 400 kts | 224° |
| 2026-05-06 23:01 | 37.45907 | -76.27817 | 37892 ft | 401 kts | 224° |
| 2026-05-06 23:01 | 37.41117 | -76.31440 | 37889 ft | 402 kts | 224° |
| 2026-05-06 23:02 | 37.36318 | -76.35073 | 37880 ft | 404 kts | 224° |
| 2026-05-06 23:02 | 37.31490 | -76.38719 | 37893 ft | 405 kts | 224° |
| 2026-05-06 23:03 | 37.26656 | -76.42354 | 37898 ft | 405 kts | 224° |
| 2026-05-06 23:03 | 37.21859 | -76.45964 | 37911 ft | 405 kts | 224° |
| 2026-05-06 23:04 | 37.17035 | -76.49590 | 37877 ft | 405 kts | 224° |
| 2026-05-06 23:04 | 37.12194 | -76.53225 | 37908 ft | 403 kts | 224° |
| 2026-05-06 23:05 | 37.07388 | -76.56824 | 37897 ft | 403 kts | 224° |
| 2026-05-06 23:05 | 37.02576 | -76.60423 | 37896 ft | 403 kts | 224° |
| 2026-05-06 23:06 | 36.97769 | -76.64015 | 37903 ft | 403 kts | 224° |
| 2026-05-06 23:06 | 36.92949 | -76.67611 | 37878 ft | 404 kts | 224° |
| 2026-05-06 23:07 | 36.88114 | -76.71213 | 37916 ft | 405 kts | 224° |
| 2026-05-06 23:07 | 36.83269 | -76.74813 | 37923 ft | 405 kts | 224° |
| 2026-05-06 23:08 | 36.78424 | -76.78412 | 37924 ft | 405 kts | 224° |
| 2026-05-06 23:08 | 36.73580 | -76.82006 | 37899 ft | 405 kts | 224° |
| 2026-05-06 23:09 | 36.68724 | -76.85600 | 37918 ft | 407 kts | 224° |
| 2026-05-06 23:09 | 36.63864 | -76.89186 | 37932 ft | 404 kts | 224° |
| 2026-05-06 23:10 | 36.59033 | -76.92754 | 37928 ft | 404 kts | 224° |
| 2026-05-06 23:10 | 36.54199 | -76.96313 | 37924 ft | 404 kts | 224° |
| 2026-05-06 23:11 | 36.49362 | -76.99876 | 37906 ft | 406 kts | 225° |
| 2026-05-06 23:11 | 36.44497 | -77.03452 | 37926 ft | 408 kts | 224° |
| 2026-05-06 23:12 | 36.39609 | -77.07039 | 37930 ft | 408 kts | 224° |
| 2026-05-06 23:12 | 36.34717 | -77.10622 | 37929 ft | 408 kts | 224° |
| 2026-05-06 23:13 | 36.29823 | -77.14204 | 37932 ft | 408 kts | 224° |
| 2026-05-06 23:13 | 36.24915 | -77.17791 | 37925 ft | 410 kts | 224° |
| 2026-05-06 23:14 | 36.19989 | -77.21381 | 37927 ft | 411 kts | 224° |
| 2026-05-06 23:14 | 36.15071 | -77.24956 | 37940 ft | 408 kts | 225° |
| 2026-05-06 23:15 | 36.10201 | -77.28501 | 37935 ft | 406 kts | 225° |
| 2026-05-06 23:15 | 36.05338 | -77.32055 | 37903 ft | 405 kts | 226° |
| 2026-05-06 23:16 | 36.00894 | -77.36105 | 37938 ft | 395 kts | 232° |
| 2026-05-06 23:16 | 35.96584 | -77.40317 | 37930 ft | 395 kts | 232° |
| 2026-05-06 23:17 | 35.92267 | -77.44505 | 37927 ft | 395 kts | 232° |
| 2026-05-06 23:17 | 35.87938 | -77.48686 | 37930 ft | 395 kts | 231° |
| 2026-05-06 23:18 | 35.83611 | -77.52861 | 37915 ft | 395 kts | 231° |
| 2026-05-06 23:18 | 35.79269 | -77.57033 | 37937 ft | 396 kts | 231° |
| 2026-05-06 23:19 | 35.74932 | -77.61203 | 37945 ft | 394 kts | 231° |
| 2026-05-06 23:19 | 35.70621 | -77.65338 | 37945 ft | 392 kts | 231° |
| 2026-05-06 23:20 | 35.66321 | -77.69466 | 37945 ft | 392 kts | 231° |
| 2026-05-06 23:20 | 35.62041 | -77.73559 | 37930 ft | 392 kts | 231° |
| 2026-05-06 23:21 | 35.57711 | -77.77693 | 37953 ft | 395 kts | 231° |
| 2026-05-06 23:21 | 35.53370 | -77.81834 | 37950 ft | 395 kts | 231° |
| 2026-05-06 23:22 | 35.49030 | -77.85972 | 37948 ft | 395 kts | 231° |
| 2026-05-06 23:22 | 35.44689 | -77.90104 | 37950 ft | 395 kts | 231° |
| 2026-05-06 23:23 | 35.40348 | -77.94230 | 37951 ft | 395 kts | 231° |
| 2026-05-06 23:23 | 35.36012 | -77.98340 | 37945 ft | 391 kts | 231° |
| 2026-05-06 23:24 | 35.31716 | -78.02410 | 37943 ft | 390 kts | 231° |
| 2026-05-06 23:24 | 35.27428 | -78.06471 | 37947 ft | 390 kts | 231° |
| 2026-05-06 23:25 | 35.23131 | -78.10538 | 37947 ft | 390 kts | 231° |
| 2026-05-06 23:25 | 35.18836 | -78.14591 | 37952 ft | 390 kts | 231° |
| 2026-05-06 23:26 | 35.14526 | -78.18654 | 37948 ft | 393 kts | 231° |
| 2026-05-06 23:26 | 35.10196 | -78.22725 | 37965 ft | 393 kts | 231° |
| 2026-05-06 23:27 | 35.05863 | -78.26793 | 37970 ft | 393 kts | 231° |
| 2026-05-06 23:27 | 35.01532 | -78.30855 | 37970 ft | 393 kts | 231° |
| 2026-05-06 23:28 | 34.97201 | -78.34915 | 37970 ft | 393 kts | 231° |
| 2026-05-06 23:28 | 34.92864 | -78.38981 | 37945 ft | 395 kts | 231° |
| 2026-05-06 23:29 | 34.88498 | -78.43065 | 37967 ft | 396 kts | 231° |
| 2026-05-06 23:29 | 34.84122 | -78.47144 | 37961 ft | 396 kts | 231° |
| 2026-05-06 23:30 | 34.79746 | -78.51223 | 37975 ft | 396 kts | 231° |
| 2026-05-06 23:30 | 34.75371 | -78.55301 | 37983 ft | 396 kts | 231° |
| 2026-05-06 23:31 | 34.70993 | -78.59377 | 37958 ft | 396 kts | 231° |
| 2026-05-06 23:31 | 34.66593 | -78.63459 | 37982 ft | 399 kts | 231° |
| 2026-05-06 23:32 | 34.62179 | -78.67552 | 37978 ft | 399 kts | 231° |
| 2026-05-06 23:32 | 34.57807 | -78.71596 | 37975 ft | 396 kts | 231° |
| 2026-05-06 23:33 | 34.53408 | -78.75667 | 37977 ft | 395 kts | 231° |
| 2026-05-06 23:33 | 34.49059 | -78.79677 | 37975 ft | 395 kts | 231° |
| 2026-05-06 23:34 | 34.44670 | -78.83711 | 37969 ft | 398 kts | 230° |
| 2026-05-06 23:34 | 34.40110 | -78.87619 | 37979 ft | 402 kts | 229° |
| 2026-05-06 23:35 | 34.35519 | -78.91487 | 37981 ft | 402 kts | 229° |
| 2026-05-06 23:35 | 34.30931 | -78.95352 | 37988 ft | 402 kts | 228° |
| 2026-05-06 23:36 | 34.26337 | -78.99206 | 37989 ft | 402 kts | 228° |
| 2026-05-06 23:36 | 34.21735 | -79.03066 | 37975 ft | 404 kts | 228° |
| 2026-05-06 23:37 | 34.17114 | -79.06942 | 37985 ft | 404 kts | 228° |
| 2026-05-06 23:37 | 34.12514 | -79.10793 | 37992 ft | 402 kts | 228° |
| 2026-05-06 23:38 | 34.07920 | -79.14643 | 37990 ft | 402 kts | 228° |
| 2026-05-06 23:38 | 34.03327 | -79.18485 | 37994 ft | 402 kts | 228° |
| 2026-05-06 23:39 | 33.98738 | -79.22320 | 37995 ft | 402 kts | 228° |
| 2026-05-06 23:39 | 33.94134 | -79.26162 | 38007 ft | 403 kts | 228° |
| 2026-05-06 23:40 | 33.89535 | -79.30014 | 38008 ft | 403 kts | 228° |
| 2026-05-06 23:40 | 33.84927 | -79.33851 | 38011 ft | 403 kts | 228° |
| 2026-05-06 23:41 | 33.80319 | -79.37687 | 38008 ft | 403 kts | 228° |
| 2026-05-06 23:41 | 33.75704 | -79.41518 | 37957 ft | 403 kts | 227° |
| 2026-05-06 23:42 | 33.71073 | -79.45355 | 37994 ft | 403 kts | 227° |
| 2026-05-06 23:42 | 33.66455 | -79.49178 | 38004 ft | 403 kts | 227° |
| 2026-05-06 23:43 | 33.61839 | -79.52996 | 38011 ft | 403 kts | 227° |
| 2026-05-06 23:43 | 33.57971 | -79.56190 | 38011 ft | 403 kts | 227° |
| 2026-05-06 23:44 | 33.53348 | -79.60002 | 38013 ft | 403 kts | 227° |
| 2026-05-06 23:44 | 33.48753 | -79.63788 | 37985 ft | 404 kts | 227° |
| 2026-05-06 23:45 | 33.44109 | -79.67609 | 38009 ft | 405 kts | 227° |
| 2026-05-06 23:45 | 33.39459 | -79.71428 | 38009 ft | 405 kts | 227° |
| 2026-05-06 23:46 | 33.34811 | -79.75239 | 38008 ft | 405 kts | 227° |
| 2026-05-06 23:46 | 33.30167 | -79.79051 | 38010 ft | 405 kts | 227° |
| 2026-05-06 23:47 | 33.25518 | -79.82844 | 37995 ft | 404 kts | 227° |
| 2026-05-06 23:47 | 33.20874 | -79.86644 | 38017 ft | 405 kts | 227° |
| 2026-05-06 23:48 | 33.16218 | -79.90445 | 38018 ft | 405 kts | 226° |
| 2026-05-06 23:48 | 33.11555 | -79.94239 | 38018 ft | 406 kts | 226° |
| 2026-05-06 23:49 | 33.06892 | -79.98030 | 38018 ft | 406 kts | 226° |
| 2026-05-06 23:49 | 33.02231 | -80.01815 | 38027 ft | 406 kts | 226° |
| 2026-05-06 23:50 | 32.97566 | -80.05600 | 38028 ft | 406 kts | 226° |
| 2026-05-06 23:50 | 32.90557 | -80.11259 | 38029 ft | 406 kts | 226° |
| 2026-05-06 23:51 | 32.85892 | -80.15041 | 38030 ft | 406 kts | 226° |
| 2026-05-06 23:51 | 32.81231 | -80.18819 | 38030 ft | 404 kts | 226° |
| 2026-05-06 23:52 | 32.76589 | -80.22568 | 37996 ft | 404 kts | 226° |
| 2026-05-06 23:52 | 32.71920 | -80.26333 | 38028 ft | 406 kts | 226° |
| 2026-05-06 23:53 | 32.67241 | -80.30095 | 38027 ft | 406 kts | 225° |
| 2026-05-06 23:53 | 32.62560 | -80.33845 | 38037 ft | 406 kts | 225° |
| 2026-05-06 23:54 | 32.57864 | -80.37591 | 38037 ft | 408 kts | 225° |
| 2026-05-06 23:54 | 32.52912 | -80.41013 | 38026 ft | 413 kts | 221° |
| 2026-05-06 23:55 | 32.47901 | -80.44367 | 38025 ft | 414 kts | 221° |
| 2026-05-06 23:55 | 32.42894 | -80.47735 | 38032 ft | 414 kts | 221° |
| 2026-05-06 23:56 | 32.37880 | -80.51110 | 38030 ft | 414 kts | 221° |
| 2026-05-06 23:56 | 32.32906 | -80.54456 | 38034 ft | 413 kts | 221° |
| 2026-05-06 23:57 | 32.27906 | -80.57816 | 38031 ft | 409 kts | 221° |
| 2026-05-06 23:57 | 32.22945 | -80.61151 | 38023 ft | 411 kts | 221° |
| 2026-05-06 23:58 | 32.18000 | -80.64468 | 38040 ft | 411 kts | 221° |
| 2026-05-06 23:58 | 32.12995 | -80.67827 | 38040 ft | 411 kts | 221° |
| 2026-05-06 23:59 | 32.08050 | -80.71136 | 38038 ft | 412 kts | 221° |
| 2026-05-06 23:59 | 32.03034 | -80.74482 | 38034 ft | 411 kts | 221° |
| 2026-05-07 00:00 | 31.98092 | -80.77777 | 38013 ft | 412 kts | 220° |
| 2026-05-07 00:00 | 31.93093 | -80.81116 | 38016 ft | 413 kts | 220° |
| 2026-05-07 00:01 | 31.88091 | -80.84447 | 38013 ft | 413 kts | 220° |
| 2026-05-07 00:01 | 31.83085 | -80.87773 | 38018 ft | 413 kts | 220° |
| 2026-05-07 00:02 | 31.78075 | -80.91094 | 38006 ft | 413 kts | 220° |
| 2026-05-07 00:02 | 31.73083 | -80.94400 | 38010 ft | 411 kts | 219° |
| 2026-05-07 00:03 | 31.68080 | -80.97719 | 38033 ft | 414 kts | 219° |
| 2026-05-07 00:03 | 31.63064 | -81.01037 | 38038 ft | 414 kts | 219° |
| 2026-05-07 00:04 | 31.58027 | -81.04329 | 38051 ft | 416 kts | 217° |
| 2026-05-07 00:04 | 31.52892 | -81.07487 | 38033 ft | 417 kts | 217° |
| 2026-05-07 00:05 | 31.47758 | -81.10634 | 38010 ft | 417 kts | 217° |
| 2026-05-07 00:05 | 31.42601 | -81.13793 | 38037 ft | 419 kts | 217° |
| 2026-05-07 00:06 | 31.37430 | -81.16952 | 38042 ft | 419 kts | 216° |
| 2026-05-07 00:06 | 31.32224 | -81.20047 | 38034 ft | 420 kts | 216° |
| 2026-05-07 00:07 | 31.27011 | -81.23133 | 38035 ft | 420 kts | 216° |
| 2026-05-07 00:07 | 31.21792 | -81.26219 | 38011 ft | 420 kts | 215° |
| 2026-05-07 00:08 | 31.19092 | -81.27551 | 37856 ft | 425 kts | 207° |
| 2026-05-07 00:08 | 31.16134 | -81.28287 | 37607 ft | 445 kts | 194° |
| 2026-05-07 00:08 | 31.13001 | -81.28402 | 37359 ft | 454 kts | 188° |
| 2026-05-07 00:08 | 31.09884 | -81.28350 | 37112 ft | 454 kts | 187° |
| 2026-05-07 00:09 | 31.06727 | -81.28291 | 36860 ft | 453 kts | 188° |
| 2026-05-07 00:09 | 31.03523 | -81.28255 | 36605 ft | 452 kts | 188° |
| 2026-05-07 00:09 | 31.00387 | -81.28239 | 36359 ft | 453 kts | 188° |
| 2026-05-07 00:09 | 30.97240 | -81.28227 | 36115 ft | 451 kts | 188° |
| 2026-05-07 00:10 | 30.94107 | -81.28219 | 35853 ft | 450 kts | 188° |
| 2026-05-07 00:10 | 30.90977 | -81.28210 | 35614 ft | 449 kts | 188° |
| 2026-05-07 00:10 | 30.87902 | -81.28202 | 35378 ft | 447 kts | 188° |
| 2026-05-07 00:10 | 30.84794 | -81.28194 | 35148 ft | 446 kts | 188° |
| 2026-05-07 00:11 | 30.81696 | -81.28184 | 34922 ft | 445 kts | 187° |
| 2026-05-07 00:11 | 30.78562 | -81.28173 | 34685 ft | 443 kts | 187° |
| 2026-05-07 00:11 | 30.75526 | -81.28164 | 34461 ft | 442 kts | 187° |
| 2026-05-07 00:11 | 30.72451 | -81.28158 | 34234 ft | 441 kts | 187° |
| 2026-05-07 00:12 | 30.69393 | -81.28152 | 34002 ft | 439 kts | 187° |
| 2026-05-07 00:12 | 30.66341 | -81.28144 | 33722 ft | 438 kts | 187° |
| 2026-05-07 00:12 | 30.63299 | -81.28139 | 33452 ft | 436 kts | 187° |
| 2026-05-07 00:12 | 30.60271 | -81.28112 | 33178 ft | 435 kts | 186° |
| 2026-05-07 00:13 | 30.57241 | -81.27937 | 32883 ft | 435 kts | 184° |
| 2026-05-07 00:13 | 30.54225 | -81.27703 | 32620 ft | 433 kts | 184° |
| 2026-05-07 00:13 | 30.51224 | -81.27462 | 32363 ft | 431 kts | 184° |
| 2026-05-07 00:13 | 30.48244 | -81.27230 | 32089 ft | 429 kts | 184° |
| 2026-05-07 00:14 | 30.45279 | -81.27004 | 31706 ft | 424 kts | 185° |
| 2026-05-07 00:14 | 30.42348 | -81.26783 | 31274 ft | 421 kts | 185° |
| 2026-05-07 00:14 | 30.39431 | -81.26565 | 30852 ft | 418 kts | 185° |
| 2026-05-07 00:14 | 30.36532 | -81.26348 | 30440 ft | 416 kts | 185° |
| 2026-05-07 00:15 | 30.33656 | -81.26134 | 29997 ft | 413 kts | 186° |
| 2026-05-07 00:15 | 30.30795 | -81.25917 | 29484 ft | 411 kts | 185° |
| 2026-05-07 00:15 | 30.27946 | -81.25703 | 29010 ft | 409 kts | 185° |
| 2026-05-07 00:15 | 30.25119 | -81.25491 | 28558 ft | 406 kts | 185° |
| 2026-05-07 00:16 | 30.22315 | -81.25279 | 28128 ft | 402 kts | 185° |
| 2026-05-07 00:16 | 30.19524 | -81.25071 | 27702 ft | 399 kts | 185° |
| 2026-05-07 00:16 | 30.16770 | -81.24865 | 27305 ft | 396 kts | 185° |
| 2026-05-07 00:16 | 30.14026 | -81.24662 | 26877 ft | 393 kts | 185° |
| 2026-05-07 00:17 | 30.11299 | -81.24459 | 26440 ft | 391 kts | 185° |
| 2026-05-07 00:17 | 30.08591 | -81.24257 | 26005 ft | 389 kts | 184° |
| 2026-05-07 00:17 | 30.05896 | -81.24055 | 25609 ft | 387 kts | 184° |
| 2026-05-07 00:17 | 30.03224 | -81.23856 | 25221 ft | 384 kts | 184° |
| 2026-05-07 00:18 | 30.00560 | -81.23658 | 24788 ft | 383 kts | 184° |
| 2026-05-07 00:18 | 29.97903 | -81.23462 | 24359 ft | 382 kts | 184° |
| 2026-05-07 00:18 | 29.95258 | -81.23265 | 23950 ft | 381 kts | 184° |
| 2026-05-07 00:18 | 29.92618 | -81.23067 | 23511 ft | 378 kts | 183° |
| 2026-05-07 00:19 | 29.90008 | -81.22872 | 23048 ft | 374 kts | 183° |
| 2026-05-07 00:19 | 29.87429 | -81.22680 | 22620 ft | 369 kts | 183° |
| 2026-05-07 00:19 | 29.84877 | -81.22491 | 22201 ft | 367 kts | 183° |
| 2026-05-07 00:19 | 29.82336 | -81.22301 | 21776 ft | 365 kts | 183° |
| 2026-05-07 00:20 | 29.79812 | -81.22114 | 21350 ft | 363 kts | 182° |
| 2026-05-07 00:20 | 29.77302 | -81.21928 | 20944 ft | 361 kts | 182° |
| 2026-05-07 00:20 | 29.74795 | -81.21740 | 20559 ft | 360 kts | 182° |
| 2026-05-07 00:20 | 29.72304 | -81.21554 | 20177 ft | 358 kts | 182° |
| 2026-05-07 00:21 | 29.69825 | -81.21370 | 19808 ft | 356 kts | 181° |
| 2026-05-07 00:21 | 29.67355 | -81.21161 | 19433 ft | 355 kts | 180° |
| 2026-05-07 00:21 | 29.64895 | -81.20946 | 19053 ft | 355 kts | 180° |
| 2026-05-07 00:21 | 29.62431 | -81.20731 | 18702 ft | 354 kts | 180° |
| 2026-05-07 00:22 | 29.59975 | -81.20518 | 18345 ft | 354 kts | 180° |
| 2026-05-07 00:22 | 29.57520 | -81.20305 | 17955 ft | 354 kts | 180° |
| 2026-05-07 00:22 | 29.55070 | -81.20095 | 17578 ft | 353 kts | 180° |
| 2026-05-07 00:22 | 29.52619 | -81.19885 | 17177 ft | 352 kts | 179° |
| 2026-05-07 00:23 | 29.50179 | -81.19674 | 16827 ft | 351 kts | 179° |
| 2026-05-07 00:23 | 29.47746 | -81.19466 | 16495 ft | 350 kts | 179° |
| 2026-05-07 00:23 | 29.45327 | -81.19260 | 16175 ft | 348 kts | 179° |
| 2026-05-07 00:23 | 29.42918 | -81.19055 | 15854 ft | 346 kts | 179° |
| 2026-05-07 00:24 | 29.40519 | -81.18850 | 15529 ft | 345 kts | 179° |
| 2026-05-07 00:24 | 29.38128 | -81.18646 | 15209 ft | 344 kts | 179° |
| 2026-05-07 00:24 | 29.35742 | -81.18441 | 14868 ft | 343 kts | 178° |
| 2026-05-07 00:24 | 29.33364 | -81.18239 | 14538 ft | 343 kts | 178° |
| 2026-05-07 00:25 | 29.31002 | -81.18037 | 14171 ft | 335 kts | 178° |
| 2026-05-07 00:25 | 29.28719 | -81.17839 | 13820 ft | 323 kts | 178° |
| 2026-05-07 00:25 | 29.26537 | -81.17646 | 13472 ft | 315 kts | 178° |
| 2026-05-07 00:25 | 29.24358 | -81.17454 | 13150 ft | 312 kts | 178° |
| 2026-05-07 00:26 | 29.22204 | -81.17263 | 12883 ft | 310 kts | 177° |
| 2026-05-07 00:26 | 29.20059 | -81.17075 | 12592 ft | 308 kts | 177° |
| 2026-05-07 00:26 | 29.17954 | -81.16638 | 12283 ft | 309 kts | 164° |
| 2026-05-07 00:26 | 29.15928 | -81.15814 | 11988 ft | 308 kts | 160° |
| 2026-05-07 00:27 | 29.13927 | -81.14936 | 11678 ft | 308 kts | 160° |
| 2026-05-07 00:27 | 29.11927 | -81.14064 | 11369 ft | 307 kts | 161° |
| 2026-05-07 00:27 | 29.09928 | -81.13201 | 11056 ft | 307 kts | 161° |
| 2026-05-07 00:27 | 29.07925 | -81.12341 | 10755 ft | 307 kts | 161° |
| 2026-05-07 00:28 | 29.05927 | -81.11484 | 10441 ft | 307 kts | 161° |
| 2026-05-07 00:28 | 29.03928 | -81.10629 | 10142 ft | 306 kts | 161° |
| 2026-05-07 00:28 | 29.01916 | -81.09855 | 9843 ft | 302 kts | 163° |
| 2026-05-07 00:28 | 28.99951 | -81.09121 | 9540 ft | 291 kts | 163° |
| 2026-05-07 00:29 | 28.98055 | -81.08410 | 9185 ft | 286 kts | 163° |
| 2026-05-07 00:29 | 28.96124 | -81.07940 | 8873 ft | 283 kts | 175° |
| 2026-05-07 00:30 | 28.90916 | -81.07382 | 8122 ft | 276 kts | 175° |
| 2026-05-07 00:30 | 28.89038 | -81.07267 | 7959 ft | 264 kts | 185° |
| 2026-05-07 00:30 | 28.87315 | -81.07759 | 7797 ft | 250 kts | 208° |
| 2026-05-07 00:30 | 28.85883 | -81.08793 | 7620 ft | 239 kts | 217° |
| 2026-05-07 00:31 | 28.84550 | -81.09894 | 7315 ft | 235 kts | 217° |
| 2026-05-07 00:31 | 28.83219 | -81.10984 | 7050 ft | 236 kts | 217° |
| 2026-05-07 00:31 | 28.81884 | -81.12066 | 7047 ft | 235 kts | 216° |
| 2026-05-07 00:31 | 28.80608 | -81.13089 | 7037 ft | 216 kts | 217° |
| 2026-05-07 00:32 | 28.79422 | -81.14041 | 7001 ft | 203 kts | 217° |
| 2026-05-07 00:32 | 28.78269 | -81.14959 | 6994 ft | 202 kts | 216° |
| 2026-05-07 00:32 | 28.77118 | -81.15874 | 6992 ft | 201 kts | 217° |
| 2026-05-07 00:32 | 28.76030 | -81.16829 | 6729 ft | 196 kts | 223° |
| 2026-05-07 00:33 | 28.75015 | -81.17878 | 6377 ft | 197 kts | 223° |
| 2026-05-07 00:33 | 28.73988 | -81.18907 | 6054 ft | 193 kts | 223° |
| 2026-05-07 00:33 | 28.73020 | -81.19883 | 5688 ft | 189 kts | 224° |
| 2026-05-07 00:33 | 28.72033 | -81.20890 | 5432 ft | 192 kts | 223° |
| 2026-05-07 00:34 | 28.71058 | -81.21885 | 5209 ft | 189 kts | 224° |
| 2026-05-07 00:34 | 28.70079 | -81.22890 | 4986 ft | 189 kts | 223° |
| 2026-05-07 00:34 | 28.69116 | -81.23877 | 4740 ft | 175 kts | 224° |
| 2026-05-07 00:34 | 28.68269 | -81.24743 | 4319 ft | 154 kts | 224° |
| 2026-05-07 00:35 | 28.67486 | -81.25548 | 4032 ft | 152 kts | 224° |
| 2026-05-07 00:35 | 28.66689 | -81.26361 | 3994 ft | 152 kts | 223° |
| 2026-05-07 00:35 | 28.65912 | -81.27160 | 3991 ft | 154 kts | 223° |
| 2026-05-07 00:35 | 28.65118 | -81.27962 | 3990 ft | 153 kts | 220° |
| 2026-05-07 00:36 | 28.64161 | -81.28482 | 3905 ft | 157 kts | 189° |
| 2026-05-07 00:36 | 28.63076 | -81.28466 | 3712 ft | 155 kts | 177° |
| 2026-05-07 00:36 | 28.61983 | -81.28437 | 3496 ft | 155 kts | 180° |
| 2026-05-07 00:36 | 28.60905 | -81.28421 | 3277 ft | 155 kts | 180° |
| 2026-05-07 00:37 | 28.59845 | -81.28409 | 3058 ft | 154 kts | 180° |
| 2026-05-07 00:37 | 28.58775 | -81.28398 | 2838 ft | 153 kts | 180° |
| 2026-05-07 00:37 | 28.57709 | -81.28388 | 2637 ft | 153 kts | 180° |
| 2026-05-07 00:37 | 28.56644 | -81.28377 | 2423 ft | 152 kts | 180° |
| 2026-05-07 00:38 | 28.55581 | -81.28366 | 2231 ft | 153 kts | 180° |
| 2026-05-07 00:38 | 28.54527 | -81.28356 | 2026 ft | 151 kts | 179° |
| 2026-05-07 00:38 | 28.53478 | -81.28345 | 1829 ft | 150 kts | 179° |
| 2026-05-07 00:38 | 28.52430 | -81.28330 | 1584 ft | 150 kts | 178° |
| 2026-05-07 00:39 | 28.51386 | -81.28315 | 1406 ft | 151 kts | 177° |
| 2026-05-07 00:39 | 28.50339 | -81.28303 | 1265 ft | 150 kts | 177° |
| 2026-05-07 00:39 | 28.49301 | -81.28280 | 1053 ft | 149 kts | 176° |
| 2026-05-07 00:39 | 28.48245 | -81.28277 | 815 ft | 150 kts | 177° |
| 2026-05-07 00:40 | 28.47205 | -81.28295 | 667 ft | 153 kts | 178° |
| 2026-05-07 00:40 | 28.46158 | -81.28292 | 471 ft | 149 kts | 176° |
| 2026-05-07 00:40 | 28.45117 | -81.28270 | 276 ft | 149 kts | 175° |
| 2026-05-07 00:40 | 28.44081 | -81.28261 | 125 ft | 149 kts | 175° |
| 2026-05-07 00:41 | 28.43113 | -81.28248 | 103 ft | 129 kts | 175° |
| 2026-05-07 00:41 | 28.42641 | -81.28246 | 103 ft | 34 kts | 189° |
| 2026-05-07 00:41 | 28.42523 | -81.28353 | 101 ft | 20 kts | 247° |
| 2026-05-07 00:41 | 28.42500 | -81.28427 | 100 ft | 10 kts | 250° |
| 2026-05-07 00:42 | 28.42473 | -81.28513 | 101 ft | 13 kts | 249° |
| 2026-05-07 00:42 | 28.42437 | -81.28629 | 104 ft | 17 kts | 249° |
| 2026-05-07 00:42 | 28.42397 | -81.28759 | 107 ft | 11 kts | 248° |
| 2026-05-07 00:42 | 28.42376 | -81.28825 | 109 ft | 10 kts | 250° |
| 2026-05-07 00:43 | 28.42359 | -81.28877 | 110 ft | 8 kts | 248° |
| 2026-05-07 00:43 | 28.42337 | -81.28946 | 108 ft | 9 kts | 250° |
| 2026-05-07 00:43 | 28.42328 | -81.28978 | 107 ft | 0 kts | 251° |